createdAt,value
2023-05-05T00:00:16.226Z,10.52
2023-05-05T00:03:21.101Z,10.72
2023-05-05T00:06:24.979Z,10.85
2023-05-05T00:09:26.636Z,10.94
2023-05-05T00:12:32.581Z,10.92
2023-05-05T00:15:36.523Z,10.94
2023-05-05T00:18:40.252Z,10.69
2023-05-05T00:21:45.664Z,10.30
2023-05-05T00:24:47.358Z,10.15
2023-05-05T00:27:49.248Z,10.17
2023-05-05T00:30:51.291Z,10.03
2023-05-05T00:33:53.140Z,10.04
2023-05-05T00:36:54.867Z,9.88
2023-05-05T00:39:56.838Z,9.88
2023-05-05T00:42:59.719Z,9.75
2023-05-05T00:46:09.832Z,9.67
2023-05-05T00:49:12.301Z,9.59
2023-05-05T00:52:14.278Z,9.54
2023-05-05T00:55:16.358Z,9.34
2023-05-05T00:58:18.386Z,8.97
2023-05-05T01:01:20.303Z,8.74
2023-05-05T01:04:22.204Z,8.62
2023-05-05T01:07:48.516Z,9.07
2023-05-05T01:10:58.742Z,9.47
2023-05-05T01:14:13.786Z,9.31
2023-05-05T01:17:22.341Z,8.79
2023-05-05T01:20:33.188Z,8.76
2023-05-05T01:23:56.189Z,8.42
2023-05-05T01:27:22.292Z,8.32
2023-05-05T01:30:42.650Z,8.08
2023-05-05T01:33:58.276Z,7.92
2023-05-05T01:37:07.596Z,8.09
2023-05-05T01:40:12.330Z,8.16
2023-05-05T01:43:18.295Z,8.24
2023-05-05T01:46:22.121Z,8.42
2023-05-05T01:49:24.633Z,8.34
2023-05-05T01:52:28.017Z,8.22
2023-05-05T01:55:32.436Z,8.12
2023-05-05T01:58:36.415Z,8.04
2023-05-05T02:01:41.794Z,8.06
2023-05-05T02:04:44.989Z,7.96
2023-05-05T02:07:46.893Z,8.07
2023-05-05T02:10:50.275Z,7.93
2023-05-05T02:13:53.592Z,8.20
2023-05-05T02:16:58.478Z,7.96
2023-05-05T02:20:04.041Z,7.97
2023-05-05T02:23:07.960Z,8.14
2023-05-05T02:26:12.875Z,8.24
2023-05-05T02:29:21.410Z,7.98
2023-05-05T02:32:31.458Z,7.79
2023-05-05T02:35:40.262Z,7.73
2023-05-05T02:38:45.398Z,7.87
2023-05-05T02:41:49.597Z,8.08
2023-05-05T02:44:53.997Z,7.81
2023-05-05T02:47:56.025Z,7.53
2023-05-05T02:50:57.753Z,7.44
2023-05-05T02:54:00.229Z,7.63
2023-05-05T02:57:02.468Z,7.58
2023-05-05T03:00:27.972Z,7.43
2023-05-05T03:03:52.099Z,7.25
2023-05-05T03:06:59.108Z,7.10
2023-05-05T03:10:08.626Z,7.07
2023-05-05T03:13:12.156Z,7.00
2023-05-05T03:16:18.319Z,7.12
2023-05-05T03:19:21.423Z,7.00
2023-05-05T03:22:23.251Z,7.01
2023-05-05T03:25:45.452Z,7.15
2023-05-05T03:28:48.241Z,7.30
2023-05-05T03:31:50.015Z,7.63
2023-05-05T03:34:51.776Z,7.73
2023-05-05T03:37:55.543Z,7.46
2023-05-05T03:40:57.336Z,7.50
2023-05-05T03:43:59.241Z,7.64
2023-05-05T03:47:00.930Z,7.56
2023-05-05T03:50:02.672Z,7.50
2023-05-05T03:53:04.412Z,7.39
2023-05-05T03:56:06.339Z,7.31
2023-05-05T03:59:08.851Z,7.31
2023-05-05T04:02:10.565Z,7.28
2023-05-05T04:05:12.356Z,7.22
2023-05-05T04:08:15.157Z,7.21
2023-05-05T04:11:16.778Z,7.18
2023-05-05T04:14:18.462Z,7.14
2023-05-05T04:17:20.217Z,7.18
2023-05-05T04:20:22.013Z,7.26
2023-05-05T04:23:23.745Z,7.32
2023-05-05T04:26:25.511Z,7.56
2023-05-05T04:29:27.171Z,7.68
2023-05-05T04:32:28.946Z,7.81
2023-05-05T04:35:30.795Z,7.87
2023-05-05T04:38:32.579Z,7.99
2023-05-05T04:41:34.809Z,8.17
2023-05-05T04:44:36.725Z,8.33
2023-05-05T04:47:39.209Z,8.61
2023-05-05T04:50:41.059Z,8.87
2023-05-05T04:53:42.735Z,9.13
2023-05-05T04:56:44.439Z,9.35
2023-05-05T04:59:46.145Z,9.64
2023-05-05T05:02:47.849Z,9.95
2023-05-05T05:05:49.991Z,10.15
2023-05-05T05:08:52.056Z,10.35
2023-05-05T05:11:53.826Z,10.49
2023-05-05T05:14:55.520Z,10.90
2023-05-05T05:17:57.312Z,11.09
2023-05-05T05:20:58.965Z,11.39
2023-05-05T05:24:00.692Z,11.66
2023-05-05T05:27:03.035Z,12.32
2023-05-05T05:30:05.000Z,12.80
2023-05-05T05:33:07.935Z,12.90
2023-05-05T05:36:09.780Z,12.82
2023-05-05T05:39:11.477Z,13.14
2023-05-05T05:42:13.147Z,13.04
2023-05-05T05:45:14.921Z,13.07
2023-05-05T05:48:16.671Z,13.70
2023-05-05T05:51:18.406Z,14.20
2023-05-05T05:54:20.107Z,14.18
2023-05-05T05:57:23.777Z,14.48
2023-05-05T06:00:26.099Z,14.23
2023-05-05T06:03:28.024Z,14.54
2023-05-05T06:06:30.046Z,14.32
2023-05-05T06:09:31.786Z,15.01
2023-05-05T06:12:33.559Z,14.56
2023-05-05T06:15:35.313Z,13.97
2023-05-05T06:18:37.461Z,13.86
2023-05-05T06:21:39.240Z,13.92
2023-05-05T06:24:41.012Z,14.64
2023-05-05T06:27:42.773Z,14.73
2023-05-05T06:30:44.461Z,14.43
2023-05-05T06:33:46.301Z,14.14
2023-05-05T06:36:48.195Z,14.72
2023-05-05T06:39:50.057Z,15.07
2023-05-05T06:42:51.796Z,14.38
2023-05-05T06:45:53.516Z,14.55
2023-05-05T06:48:55.196Z,14.42
2023-05-05T06:51:57.062Z,14.56
2023-05-05T06:54:58.691Z,14.38
2023-05-05T06:58:00.322Z,14.64
2023-05-05T07:01:02.165Z,14.68
2023-05-05T07:04:04.135Z,15.44
2023-05-05T07:07:06.013Z,15.83
2023-05-05T07:10:10.028Z,15.20
2023-05-05T07:13:11.920Z,15.62
2023-05-05T07:16:13.681Z,15.79
2023-05-05T07:19:15.390Z,16.58
2023-05-05T07:22:17.071Z,16.50
2023-05-05T07:25:18.774Z,17.30
2023-05-05T07:28:22.320Z,17.57
2023-05-05T07:31:24.637Z,17.73
2023-05-05T07:34:26.372Z,18.33
2023-05-05T07:37:28.171Z,18.97
2023-05-05T07:40:30.129Z,19.82
2023-05-05T07:43:31.813Z,20.19
2023-05-05T07:46:33.777Z,20.37
2023-05-05T07:49:35.627Z,23.16
2023-05-05T07:52:45.080Z,24.84
2023-05-05T07:55:49.886Z,27.16
2023-05-05T07:58:51.579Z,28.78
2023-05-05T08:01:54.949Z,31.69
2023-05-05T08:04:56.773Z,32.54
2023-05-05T08:07:58.863Z,34.81
2023-05-05T08:11:01.273Z,31.73
2023-05-05T08:14:03.033Z,33.56
2023-05-05T08:17:04.641Z,32.19
2023-05-05T08:20:07.133Z,31.21
2023-05-05T08:23:08.941Z,30.19
2023-05-05T08:26:10.710Z,29.51
2023-05-05T08:29:12.490Z,35.24
2023-05-05T08:32:16.276Z,30.77
2023-05-05T08:35:18.285Z,34.57
2023-05-05T08:38:19.994Z,36.13
2023-05-05T08:41:21.866Z,34.77
2023-05-05T08:44:23.647Z,33.24
2023-05-05T08:47:25.463Z,39.14
2023-05-05T08:50:28.686Z,40.19
2023-05-05T08:53:44.434Z,42.94
2023-05-05T08:56:50.069Z,41.18
2023-05-05T08:59:51.940Z,42.03
2023-05-05T09:02:57.332Z,44.03
2023-05-05T09:05:59.437Z,38.50
2023-05-05T09:09:01.742Z,39.98
2023-05-05T09:12:03.915Z,41.28
2023-05-05T09:15:18.918Z,43.06
2023-05-05T09:18:20.534Z,39.86
2023-05-05T09:21:24.741Z,42.94
2023-05-05T09:24:26.790Z,45.20
2023-05-05T09:27:28.486Z,41.94
2023-05-05T09:30:30.222Z,40.10
2023-05-05T09:33:32.094Z,37.48
2023-05-05T09:36:44.888Z,39.24
2023-05-05T09:39:54.479Z,41.57
2023-05-05T09:43:07.149Z,43.60
2023-05-05T09:46:08.956Z,42.20
2023-05-05T09:49:20.126Z,37.22
2023-05-05T09:52:21.961Z,31.49
2023-05-05T09:55:25.105Z,28.18
2023-05-05T09:58:31.080Z,28.64
2023-05-05T10:01:32.879Z,27.15
2023-05-05T10:04:34.765Z,26.31
2023-05-05T10:07:37.565Z,25.60
2023-05-05T10:10:58.330Z,26.10
2023-05-05T10:14:00.268Z,26.82
2023-05-05T10:17:03.108Z,24.60
2023-05-05T10:20:07.530Z,24.55
2023-05-05T10:23:14.207Z,23.19
2023-05-05T10:26:19.691Z,24.04
2023-05-05T10:29:39.239Z,23.00
2023-05-05T10:32:57.312Z,23.40
2023-05-05T10:36:07.975Z,23.51
2023-05-05T10:39:11.220Z,23.06
2023-05-05T10:42:15.776Z,23.72
2023-05-05T10:45:17.685Z,22.82
2023-05-05T10:48:27.956Z,21.76
2023-05-05T10:51:40.609Z,22.17
2023-05-05T10:54:46.685Z,21.34
2023-05-05T10:57:53.232Z,20.68
2023-05-05T11:00:55.066Z,21.18
2023-05-05T11:04:22.776Z,22.23
2023-05-05T11:07:24.561Z,22.63
2023-05-05T11:10:26.456Z,22.80
2023-05-05T11:13:28.573Z,23.13
2023-05-05T11:16:44.321Z,21.71
2023-05-05T11:19:47.715Z,22.87
2023-05-05T11:23:05.027Z,22.20
2023-05-05T11:26:06.998Z,22.45
2023-05-05T11:29:08.765Z,22.74
2023-05-05T11:32:11.979Z,22.61
2023-05-05T11:35:15.417Z,22.77
2023-05-05T11:38:20.911Z,22.99
2023-05-05T11:41:35.803Z,22.87
2023-05-05T11:44:37.758Z,23.74
2023-05-05T11:47:39.696Z,23.55
2023-05-05T11:50:41.905Z,23.39
2023-05-05T11:53:48.132Z,23.55
2023-05-05T11:56:51.364Z,23.59
2023-05-05T11:59:54.736Z,23.28
2023-05-05T12:02:57.441Z,23.52
2023-05-05T12:05:59.363Z,23.00
2023-05-05T12:09:01.401Z,24.00
2023-05-05T12:12:03.405Z,23.94
2023-05-05T12:15:06.108Z,23.10
2023-05-05T12:18:18.688Z,26.41
2023-05-05T12:21:21.969Z,31.36
2023-05-05T12:24:23.913Z,28.71
2023-05-05T12:27:27.328Z,29.12
2023-05-05T12:30:29.041Z,28.00
2023-05-05T12:33:38.324Z,25.10
2023-05-05T12:36:40.198Z,24.73
2023-05-05T12:39:41.955Z,26.51
2023-05-05T12:42:46.233Z,32.28
2023-05-05T12:45:49.470Z,33.75
2023-05-05T12:49:07.154Z,36.40
2023-05-05T12:52:10.107Z,29.79
2023-05-05T12:55:12.386Z,25.77
2023-05-05T12:58:14.085Z,24.53
2023-05-05T13:01:15.814Z,27.39
2023-05-05T13:04:18.192Z,29.11
2023-05-05T13:07:23.016Z,29.26
2023-05-05T13:10:28.469Z,33.91
2023-05-05T13:13:32.269Z,36.99
2023-05-05T13:16:34.246Z,33.26
2023-05-05T13:19:41.762Z,36.60
2023-05-05T13:22:43.553Z,31.59
2023-05-05T13:25:45.358Z,25.95
2023-05-05T13:28:47.031Z,26.82
2023-05-05T13:31:48.969Z,29.48
2023-05-05T13:34:50.820Z,33.44
2023-05-05T13:37:52.490Z,30.47
2023-05-05T13:40:54.205Z,26.07
2023-05-05T13:43:56.617Z,24.16
2023-05-05T13:46:59.514Z,24.36
2023-05-05T13:50:02.053Z,26.92
2023-05-05T13:53:03.946Z,29.96
2023-05-05T13:56:06.838Z,31.99
2023-05-05T13:59:09.242Z,33.41
2023-05-05T14:02:11.043Z,31.36
2023-05-05T14:05:14.745Z,29.66
2023-05-05T14:08:16.892Z,27.97
2023-05-05T14:11:20.678Z,26.26
2023-05-05T14:14:22.839Z,26.64
2023-05-05T14:17:25.382Z,26.04
2023-05-05T14:20:27.794Z,25.86
2023-05-05T14:23:29.415Z,25.51
2023-05-05T14:26:31.145Z,25.07
2023-05-05T14:29:32.918Z,25.59
2023-05-05T14:32:34.712Z,25.74
2023-05-05T14:35:36.597Z,26.02
2023-05-05T14:38:39.557Z,25.84
2023-05-05T14:41:41.215Z,24.86
2023-05-05T14:44:42.992Z,23.92
2023-05-05T14:47:44.809Z,23.63
2023-05-05T14:50:46.551Z,24.38
2023-05-05T14:53:48.436Z,25.18
2023-05-05T14:56:50.269Z,23.99
2023-05-05T14:59:53.105Z,24.21
2023-05-05T15:02:54.871Z,22.87
2023-05-05T15:05:56.732Z,23.50
2023-05-05T15:08:58.595Z,24.12
2023-05-05T15:12:00.384Z,23.52
2023-05-05T15:15:03.518Z,23.50
2023-05-05T15:18:05.790Z,24.29
2023-05-05T15:21:08.524Z,24.17
2023-05-05T15:24:10.625Z,24.52
2023-05-05T15:27:12.427Z,24.71
2023-05-05T15:30:14.437Z,24.44
2023-05-05T15:33:16.877Z,24.60
2023-05-05T15:36:22.607Z,24.57
2023-05-05T15:39:24.494Z,23.47
2023-05-05T15:42:26.796Z,23.41
2023-05-05T15:45:28.584Z,22.93
2023-05-05T15:48:30.460Z,23.32
2023-05-05T15:51:32.370Z,23.38
2023-05-05T15:54:34.465Z,23.10
2023-05-05T15:57:36.291Z,22.49
2023-05-05T16:00:39.076Z,22.55
2023-05-05T16:03:41.267Z,22.40
2023-05-05T16:06:43.201Z,21.87
2023-05-05T16:09:45.062Z,21.87
2023-05-05T16:12:46.891Z,21.60
2023-05-05T16:15:48.639Z,21.64
2023-05-05T16:18:50.639Z,21.45
2023-05-05T16:21:56.526Z,21.53
2023-05-05T16:24:58.256Z,21.40
2023-05-05T16:28:01.651Z,21.15
2023-05-05T16:31:03.545Z,21.00
2023-05-05T16:34:05.383Z,20.91
2023-05-05T16:37:07.106Z,20.88
2023-05-05T16:40:09.475Z,20.88
2023-05-05T16:43:11.199Z,20.87
2023-05-05T16:46:12.938Z,21.11
2023-05-05T16:49:14.680Z,21.00
2023-05-05T16:52:16.491Z,20.86
2023-05-05T16:55:18.317Z,20.75
2023-05-05T16:58:20.915Z,20.70
2023-05-05T17:01:22.756Z,20.44
2023-05-05T17:04:24.592Z,20.31
2023-05-05T17:07:26.265Z,20.20
2023-05-05T17:10:27.991Z,20.14
2023-05-05T17:13:29.677Z,20.11
2023-05-05T17:16:31.731Z,20.03
2023-05-05T17:19:33.422Z,20.20
2023-05-05T17:22:35.099Z,20.28
2023-05-05T17:25:36.797Z,20.25
2023-05-05T17:28:38.492Z,20.24
2023-05-05T17:31:40.259Z,19.62
2023-05-05T17:34:41.998Z,19.67
2023-05-05T17:37:43.931Z,19.43
2023-05-05T17:40:45.643Z,19.12
2023-05-05T17:43:48.577Z,19.09
2023-05-05T17:46:50.676Z,18.89
2023-05-05T17:49:54.198Z,19.22
2023-05-05T17:52:56.716Z,19.00
2023-05-05T17:55:58.415Z,19.06
2023-05-05T17:59:00.728Z,18.98
2023-05-05T18:02:02.387Z,18.92
2023-05-05T18:05:04.327Z,18.87
2023-05-05T18:08:06.837Z,18.78
2023-05-05T18:11:08.690Z,18.58
2023-05-05T18:14:10.814Z,18.47
2023-05-05T18:17:12.554Z,18.26
2023-05-05T18:20:14.274Z,18.07
2023-05-05T18:23:15.984Z,18.12
2023-05-05T18:26:17.712Z,18.02
2023-05-05T18:29:21.555Z,17.96
2023-05-05T18:32:23.852Z,17.59
2023-05-05T18:35:26.007Z,17.64
2023-05-05T18:38:27.719Z,17.59
2023-05-05T18:41:29.357Z,17.55
2023-05-05T18:44:32.840Z,17.42
2023-05-05T18:47:37.044Z,17.27
2023-05-05T18:50:38.888Z,17.17
2023-05-05T18:53:41.541Z,16.85
2023-05-05T18:56:43.339Z,16.97
2023-05-05T18:59:45.032Z,16.90
2023-05-05T19:02:46.799Z,16.87
2023-05-05T19:05:48.495Z,16.78
2023-05-05T19:08:50.296Z,16.69
2023-05-05T19:11:52.015Z,16.64
2023-05-05T19:14:53.664Z,16.59
2023-05-05T19:17:55.510Z,16.32
2023-05-05T19:20:57.227Z,16.25
2023-05-05T19:23:58.969Z,16.31
2023-05-05T19:27:02.182Z,16.18
2023-05-05T19:30:05.238Z,16.09
2023-05-05T19:33:07.155Z,15.94
2023-05-05T19:36:08.957Z,15.95
2023-05-05T19:39:10.669Z,15.89
2023-05-05T19:42:12.539Z,15.84
2023-05-05T19:45:14.251Z,15.82
2023-05-05T19:48:16.256Z,15.71
2023-05-05T19:51:18.016Z,15.68
2023-05-05T19:54:19.973Z,15.54
2023-05-05T19:57:22.349Z,15.58
2023-05-05T20:00:24.148Z,15.45
2023-05-05T20:03:25.925Z,15.35
2023-05-05T20:06:27.629Z,15.26
2023-05-05T20:09:29.535Z,15.17
2023-05-05T20:12:31.255Z,15.10
2023-05-05T20:15:33.609Z,15.08
2023-05-05T20:18:35.280Z,15.04
2023-05-05T20:21:37.024Z,14.72
2023-05-05T20:24:38.833Z,14.75
2023-05-05T20:27:40.763Z,14.67
2023-05-05T20:30:42.502Z,14.76
2023-05-05T20:33:44.309Z,14.74
2023-05-05T20:36:46.256Z,14.71
2023-05-05T20:39:48.127Z,14.79
2023-05-05T20:42:50.497Z,14.81
2023-05-05T20:45:52.385Z,14.92
2023-05-05T20:48:54.152Z,14.75
2023-05-05T20:51:58.165Z,14.71
2023-05-05T20:54:59.846Z,14.64
2023-05-05T20:58:01.630Z,14.51
2023-05-05T21:01:03.414Z,14.34
2023-05-05T21:04:05.431Z,14.45
2023-05-05T21:07:07.214Z,14.47
2023-05-05T21:10:11.255Z,14.46
2023-05-05T21:13:13.300Z,14.19
2023-05-05T21:16:15.031Z,14.15
2023-05-05T21:19:16.846Z,14.09
2023-05-05T21:22:18.727Z,13.77
2023-05-05T21:25:21.217Z,13.45
2023-05-05T21:28:22.941Z,13.25
2023-05-05T21:31:25.764Z,13.41
2023-05-05T21:34:27.421Z,13.33
2023-05-05T21:37:29.136Z,13.61
2023-05-05T21:40:31.001Z,13.60
2023-05-05T21:43:32.769Z,13.73
2023-05-05T21:46:34.565Z,13.44
2023-05-05T21:49:36.269Z,13.23
2023-05-05T21:52:37.910Z,13.10
2023-05-05T21:55:39.597Z,12.95
2023-05-05T21:58:41.330Z,13.05
2023-05-05T22:01:43.065Z,13.05
2023-05-05T22:04:48.618Z,13.05
2023-05-05T22:07:50.530Z,12.34
2023-05-05T22:10:52.249Z,12.74
2023-05-05T22:13:53.981Z,12.59
2023-05-05T22:16:55.894Z,12.71
2023-05-05T22:19:57.595Z,12.81
2023-05-05T22:23:00.888Z,12.26
2023-05-05T22:26:03.251Z,12.69
2023-05-05T22:29:05.894Z,12.71
2023-05-05T22:32:20.617Z,12.40
2023-05-05T22:35:23.371Z,12.29
2023-05-05T22:38:26.136Z,12.42
2023-05-05T22:41:28.866Z,12.42
2023-05-05T22:44:30.598Z,12.65
2023-05-05T22:47:32.327Z,12.52
2023-05-05T22:50:35.583Z,12.37
2023-05-05T22:53:38.581Z,12.26
2023-05-05T22:56:40.631Z,12.04
2023-05-05T22:59:42.289Z,12.05
2023-05-05T23:02:44.259Z,12.23
2023-05-05T23:05:46.109Z,12.24
2023-05-05T23:08:48.990Z,11.94
2023-05-05T23:11:50.599Z,12.09
2023-05-05T23:14:52.479Z,11.81
2023-05-05T23:17:54.353Z,11.25
2023-05-05T23:20:57.131Z,11.00
2023-05-05T23:23:59.135Z,10.77
2023-05-05T23:27:04.189Z,10.49
2023-05-05T23:30:07.870Z,10.56
2023-05-05T23:33:09.568Z,10.42
2023-05-05T23:36:11.319Z,10.52
2023-05-05T23:39:13.043Z,10.63
2023-05-05T23:42:14.746Z,10.54
2023-05-05T23:45:19.188Z,10.80
2023-05-05T23:48:21.353Z,10.71
2023-05-05T23:51:23.078Z,10.27
2023-05-05T23:54:24.791Z,10.20
2023-05-05T23:57:26.889Z,10.15
